New Orleans, Louisiana
Traffic Map
Current Weather Conditions
New Orleans, Louisiana
Few Clouds
Few Clouds
29°
Feels Like: 34°
Wind Chill: 29° Ceiling: Unl
Heat Index: 34° Visibility: 10mi
Dew Point: 23° Wind: 6mph
Humidity: 69% Direction: 350° (N)
Pressure: 30.03in Gusts: 0mph
Raw Report DataKNEW 261453Z 35005KT 10SM FEW016 29/23 A3003 RMK AO2 SLP164 T02940233 51007
Traffic Incident Summary
Active as of:
Severity:
Category:
InformationThere was an issue retrieving the traffic information for this location. Please try a different location or try again shortly.
Advertisements
Track Severe Weather on mobile